CSCLB KABQ-KVNY
Flight info
| Callsign | CSCLB |
|---|---|
| Flight time | N/A |
| Altitude | 40000 |
| Route | ADYOS3 ZUN J6 EED JANNY5 |
| Aircraft | CL60/M-SBDE1E2E3FGHIJ1J4J5J7M3RWXYZ/LB1V1D1 |
Departure
| Time | N/A |
|---|---|
| Airport | Albuquerque International Sunport (KABQ) |
Arrival
| Time | 2026-05-06 20:37 |
|---|---|
| Airport | Van Nuys Airport (KVNY) |
| Time | Latitude | Longitude | Altitude | Speed | Heading |
|---|---|---|---|---|---|
| 2026-05-06 20:22 | 34.69096 | -117.51336 | 16444 ft | 380 kts | 266° |
| 2026-05-06 20:22 | 34.68757 | -117.54514 | 16234 ft | 379 kts | 266° |
| 2026-05-06 20:22 | 34.68420 | -117.57676 | 15991 ft | 378 kts | 266° |
| 2026-05-06 20:22 | 34.68083 | -117.60825 | 15783 ft | 376 kts | 266° |
| 2026-05-06 20:23 | 34.67749 | -117.63960 | 15564 ft | 375 kts | 266° |
| 2026-05-06 20:23 | 34.67417 | -117.67101 | 15362 ft | 374 kts | 266° |
| 2026-05-06 20:23 | 34.67087 | -117.70219 | 15116 ft | 372 kts | 266° |
| 2026-05-06 20:23 | 34.66757 | -117.73315 | 14939 ft | 371 kts | 266° |
| 2026-05-06 20:24 | 34.66426 | -117.76413 | 14683 ft | 368 kts | 266° |
| 2026-05-06 20:24 | 34.66097 | -117.79489 | 14532 ft | 369 kts | 266° |
| 2026-05-06 20:24 | 34.65767 | -117.82569 | 14305 ft | 366 kts | 266° |
| 2026-05-06 20:24 | 34.65441 | -117.85634 | 14086 ft | 367 kts | 266° |
| 2026-05-06 20:25 | 34.65107 | -117.88691 | 13886 ft | 365 kts | 266° |
| 2026-05-06 20:25 | 34.64774 | -117.91743 | 13501 ft | 364 kts | 266° |
| 2026-05-06 20:25 | 34.64441 | -117.94769 | 13041 ft | 362 kts | 265° |
| 2026-05-06 20:25 | 34.64114 | -117.97769 | 12652 ft | 355 kts | 266° |
| 2026-05-06 20:26 | 34.63786 | -118.00735 | 12298 ft | 356 kts | 265° |
| 2026-05-06 20:26 | 34.63460 | -118.03692 | 11959 ft | 352 kts | 265° |
| 2026-05-06 20:26 | 34.63087 | -118.06598 | 11615 ft | 347 kts | 261° |
| 2026-05-06 20:26 | 34.62491 | -118.09400 | 11263 ft | 340 kts | 257° |
| 2026-05-06 20:27 | 34.61882 | -118.12129 | 10927 ft | 331 kts | 258° |
| 2026-05-06 20:27 | 34.61291 | -118.14791 | 10620 ft | 323 kts | 258° |
| 2026-05-06 20:27 | 34.60712 | -118.17390 | 10275 ft | 317 kts | 257° |
| 2026-05-06 20:27 | 34.60145 | -118.19929 | 9970 ft | 309 kts | 258° |
| 2026-05-06 20:28 | 34.59588 | -118.22427 | 9677 ft | 305 kts | 257° |
| 2026-05-06 20:28 | 34.59036 | -118.24908 | 9366 ft | 305 kts | 257° |
| 2026-05-06 20:28 | 34.58484 | -118.27385 | 9051 ft | 304 kts | 257° |
| 2026-05-06 20:28 | 34.57931 | -118.29850 | 8770 ft | 302 kts | 257° |
| 2026-05-06 20:29 | 34.57383 | -118.32300 | 8445 ft | 300 kts | 257° |
| 2026-05-06 20:29 | 34.56837 | -118.34735 | 8158 ft | 297 kts | 257° |
| 2026-05-06 20:29 | 34.56297 | -118.37141 | 8067 ft | 296 kts | 257° |
| 2026-05-06 20:29 | 34.55758 | -118.39542 | 8051 ft | 295 kts | 257° |
| 2026-05-06 20:30 | 34.55218 | -118.41946 | 8050 ft | 296 kts | 257° |
| 2026-05-06 20:30 | 34.54041 | -118.46750 | 7473 ft | 296 kts | 246° |
| 2026-05-06 20:30 | 34.52876 | -118.48772 | 7099 ft | 293 kts | 225° |
| 2026-05-06 20:31 | 34.51224 | -118.50131 | 6682 ft | 282 kts | 204° |
| 2026-05-06 20:31 | 34.49430 | -118.50970 | 6329 ft | 271 kts | 200° |
| 2026-05-06 20:31 | 34.47655 | -118.51524 | 6015 ft | 258 kts | 182° |
| 2026-05-06 20:31 | 34.45902 | -118.51421 | 5716 ft | 247 kts | 174° |
| 2026-05-06 20:32 | 34.44221 | -118.51252 | 5436 ft | 238 kts | 175° |
| 2026-05-06 20:32 | 34.42650 | -118.51099 | 5471 ft | 211 kts | 175° |
| 2026-05-06 20:32 | 34.41239 | -118.50964 | 5423 ft | 197 kts | 174° |
| 2026-05-06 20:32 | 34.39905 | -118.50836 | 5130 ft | 189 kts | 175° |
| 2026-05-06 20:33 | 34.38603 | -118.50712 | 4714 ft | 185 kts | 175° |
| 2026-05-06 20:33 | 34.37333 | -118.50591 | 4300 ft | 180 kts | 175° |
| 2026-05-06 20:33 | 34.36123 | -118.50473 | 4012 ft | 165 kts | 175° |
| 2026-05-06 20:33 | 34.35034 | -118.50370 | 3812 ft | 151 kts | 175° |
| 2026-05-06 20:34 | 34.34001 | -118.50273 | 3559 ft | 146 kts | 175° |
| 2026-05-06 20:34 | 34.33010 | -118.50179 | 3342 ft | 140 kts | 175° |
| 2026-05-06 20:34 | 34.32036 | -118.50084 | 3185 ft | 141 kts | 174° |
| 2026-05-06 20:34 | 34.31063 | -118.49984 | 2912 ft | 138 kts | 174° |
| 2026-05-06 20:35 | 34.30110 | -118.49889 | 2710 ft | 138 kts | 174° |
| 2026-05-06 20:35 | 34.29157 | -118.49792 | 2500 ft | 137 kts | 174° |
| 2026-05-06 20:35 | 34.28212 | -118.49693 | 2331 ft | 137 kts | 174° |
| 2026-05-06 20:35 | 34.27264 | -118.49601 | 2072 ft | 134 kts | 175° |
| 2026-05-06 20:36 | 34.26331 | -118.49515 | 1890 ft | 134 kts | 172° |
| 2026-05-06 20:36 | 34.25401 | -118.49391 | 1697 ft | 133 kts | 175° |
| 2026-05-06 20:36 | 34.24466 | -118.49319 | 1493 ft | 137 kts | 176° |
| 2026-05-06 20:36 | 34.23525 | -118.49256 | 1293 ft | 132 kts | 176° |
| 2026-05-06 20:37 | 34.22634 | -118.49187 | 1089 ft | 125 kts | 176° |
| 2026-05-06 20:37 | 34.21754 | -118.49113 | 885 ft | 127 kts | 176° |
| 2026-05-06 20:37 | 34.20925 | -118.49032 | 782 ft | 101 kts | 177° |
| 2026-05-06 20:37 | 34.20545 | -118.49014 | 773 ft | 18 kts | 193° |
| 2026-05-06 20:38 | 34.20439 | -118.49045 | 771 ft | 9 kts | 223° |
| 2026-05-06 20:38 | 34.20467 | -118.49107 | 772 ft | 12 kts | 356° |
| 2026-05-06 20:38 | 34.20564 | -118.49114 | 774 ft | 14 kts | 356° |
| 2026-05-06 20:38 | 34.20642 | -118.49122 | 775 ft | 5 kts | 354° |
| 2026-05-06 20:39 | 34.20702 | -118.49127 | 776 ft | 12 kts | 356° |
| 2026-05-06 20:39 | 34.20801 | -118.49137 | 779 ft | 15 kts | 355° |
| 2026-05-06 20:39 | 34.20915 | -118.49147 | 782 ft | 17 kts | 355° |
| 2026-05-06 20:39 | 34.21032 | -118.49159 | 784 ft | 13 kts | 355° |
| 2026-05-06 20:40 | 34.21102 | -118.49166 | 786 ft | 11 kts | 356° |
| 2026-05-06 20:40 | 34.21210 | -118.49176 | 789 ft | 16 kts | 354° |
| 2026-05-06 20:40 | 34.21332 | -118.49187 | 792 ft | 18 kts | 356° |
| 2026-05-06 20:40 | 34.21465 | -118.49199 | 795 ft | 18 kts | 355° |
| 2026-05-06 20:41 | 34.21589 | -118.49220 | 797 ft | 18 kts | 357° |
| 2026-05-06 20:41 | 34.21699 | -118.49228 | 798 ft | 12 kts | 356° |
| 2026-05-06 20:41 | 34.21791 | -118.49232 | 800 ft | 14 kts | 357° |
| 2026-05-06 20:41 | 34.21877 | -118.49256 | 801 ft | 9 kts | 303° |
| 2026-05-06 20:42 | 34.21865 | -118.49290 | 801 ft | 5 kts | 169° |
| 2026-05-06 20:42 | 34.21842 | -118.49311 | 801 ft | 1 kts | 259° |
| 2026-05-06 20:42 | 34.21842 | -118.49312 | 801 ft | 0 kts | 259° |